sensor_id;sensor_type;location;lat;lon;timestamp;temperature;humidity
6788;DHT22;3431;47.966;10.268;2022-09-02T00:00:17;12.60;99.90
6788;DHT22;3431;47.966;10.268;2022-09-02T00:00:41;12.60;99.90
6788;DHT22;3431;47.966;10.268;2022-09-02T00:01:11;12.60;99.90
6788;DHT22;3431;47.966;10.268;2022-09-02T00:01:35;12.60;99.90
6788;DHT22;3431;47.966;10.268;2022-09-02T00:01:58;12.50;99.90
6788;DHT22;3431;47.966;10.268;2022-09-02T00:02:20;12.50;99.90
6788;DHT22;3431;47.966;10.268;2022-09-02T00:02:42;12.50;99.90
6788;DHT22;3431;47.966;10.268;2022-09-02T00:03:04;12.50;99.90
6788;DHT22;3431;47.966;10.268;2022-09-02T00:03:26;12.50;99.90
6788;DHT22;3431;47.966;10.268;2022-09-02T00:03:49;12.50;99.90
6788;DHT22;3431;47.966;10.268;2022-09-02T00:04:14;12.50;99.90
6788;DHT22;3431;47.966;10.268;2022-09-02T00:04:36;12.50;99.90
6788;DHT22;3431;47.966;10.268;2022-09-02T00:04:59;12.50;99.90
6788;DHT22;3431;47.966;10.268;2022-09-02T00:05:21;12.50;99.90
6788;DHT22;3431;47.966;10.268;2022-09-02T00:05:43;12.50;99.90
6788;DHT22;3431;47.966;10.268;2022-09-02T00:06:05;12.50;99.90
6788;DHT22;3431;47.966;10.268;2022-09-02T00:06:28;12.50;99.90
6788;DHT22;3431;47.966;10.268;2022-09-02T00:06:52;12.60;99.90
6788;DHT22;3431;47.966;10.268;2022-09-02T00:07:14;12.60;99.90
6788;DHT22;3431;47.966;10.268;2022-09-02T00:07:36;12.50;99.90
6788;DHT22;3431;47.966;10.268;2022-09-02T00:07:57;12.50;99.90
6788;DHT22;3431;47.966;10.268;2022-09-02T00:08:20;12.50;99.90
6788;DHT22;3431;47.966;10.268;2022-09-02T00:08:42;12.50;99.90
6788;DHT22;3431;47.966;10.268;2022-09-02T00:09:05;12.50;99.90
6788;DHT22;3431;47.966;10.268;2022-09-02T00:09:28;12.50;99.90
6788;DHT22;3431;47.966;10.268;2022-09-02T00:09:49;12.60;99.90
6788;DHT22;3431;47.966;10.268;2022-09-02T00:10:11;12.60;99.90
6788;DHT22;3431;47.966;10.268;2022-09-02T00:10:36;12.60;99.90
6788;DHT22;3431;47.966;10.268;2022-09-02T00:11:00;12.60;99.90
6788;DHT22;3431;47.966;10.268;2022-09-02T00:11:26;12.60;99.90
6788;DHT22;3431;47.966;10.268;2022-09-02T00:11:49;12.60;99.90
6788;DHT22;3431;47.966;10.268;2022-09-02T00:12:11;12.60;99.90
6788;DHT22;3431;47.966;10.268;2022-09-02T00:12:32;12.60;99.90
6788;DHT22;3431;47.966;10.268;2022-09-02T00:12:55;12.60;99.90
6788;DHT22;3431;47.966;10.268;2022-09-02T00:13:19;12.60;99.90
6788;DHT22;3431;47.966;10.268;2022-09-02T00:13:41;12.60;99.90
6788;DHT22;3431;47.966;10.268;2022-09-02T00:14:05;12.60;99.90
6788;DHT22;3431;47.966;10.268;2022-09-02T00:14:30;12.60;99.90
6788;DHT22;3431;47.966;10.268;2022-09-02T00:14:52;12.60;99.90
6788;DHT22;3431;47.966;10.268;2022-09-02T00:15:14;12.60;99.90
6788;DHT22;3431;47.966;10.268;2022-09-02T00:15:35;12.60;99.90
6788;DHT22;3431;47.966;10.268;2022-09-02T00:15:58;12.60;99.90
6788;DHT22;3431;47.966;10.268;2022-09-02T00:16:20;12.60;99.90
6788;DHT22;3431;47.966;10.268;2022-09-02T00:16:43;12.60;99.90
6788;DHT22;3431;47.966;10.268;2022-09-02T00:17:11;12.60;99.90
6788;DHT22;3431;47.966;10.268;2022-09-02T00:17:34;12.60;99.90
6788;DHT22;3431;47.966;10.268;2022-09-02T00:17:55;12.60;99.90
6788;DHT22;3431;47.966;10.268;2022-09-02T00:18:18;12.60;99.90
6788;DHT22;3431;47.966;10.268;2022-09-02T00:18:40;12.60;99.90
6788;DHT22;3431;47.966;10.268;2022-09-02T00:19:03;12.60;99.90
6788;DHT22;3431;47.966;10.268;2022-09-02T00:19:28;12.60;99.90
6788;DHT22;3431;47.966;10.268;2022-09-02T00:19:50;12.60;99.90
6788;DHT22;3431;47.966;10.268;2022-09-02T00:20:12;12.60;99.90
6788;DHT22;3431;47.966;10.268;2022-09-02T00:20:33;12.60;99.90
6788;DHT22;3431;47.966;10.268;2022-09-02T00:20:55;12.60;99.90
6788;DHT22;3431;47.966;10.268;2022-09-02T00:21:18;12.60;99.90
6788;DHT22;3431;47.966;10.268;2022-09-02T00:21:41;12.60;99.90
6788;DHT22;3431;47.966;10.268;2022-09-02T00:22:03;12.60;99.90
6788;DHT22;3431;47.966;10.268;2022-09-02T00:22:25;12.60;99.90
6788;DHT22;3431;47.966;10.268;2022-09-02T00:22:47;12.60;99.90
6788;DHT22;3431;47.966;10.268;2022-09-02T00:23:09;12.60;99.90
6788;DHT22;3431;47.966;10.268;2022-09-02T00:23:31;12.60;99.90
6788;DHT22;3431;47.966;10.268;2022-09-02T00:23:53;12.60;99.90
6788;DHT22;3431;47.966;10.268;2022-09-02T00:24:15;12.60;99.90
6788;DHT22;3431;47.966;10.268;2022-09-02T00:24:38;12.60;99.90
6788;DHT22;3431;47.966;10.268;2022-09-02T00:25:00;12.50;99.90
6788;DHT22;3431;47.966;10.268;2022-09-02T00:25:22;12.60;99.90
6788;DHT22;3431;47.966;10.268;2022-09-02T00:25:44;12.60;99.90
6788;DHT22;3431;47.966;10.268;2022-09-02T00:26:06;12.50;99.90
6788;DHT22;3431;47.966;10.268;2022-09-02T00:26:29;12.60;99.90
6788;DHT22;3431;47.966;10.268;2022-09-02T00:26:52;12.50;99.90
6788;DHT22;3431;47.966;10.268;2022-09-02T00:27:14;12.50;99.90
6788;DHT22;3431;47.966;10.268;2022-09-02T00:27:36;12.60;99.90
6788;DHT22;3431;47.966;10.268;2022-09-02T00:27:58;12.50;99.90
6788;DHT22;3431;47.966;10.268;2022-09-02T00:28:21;12.60;99.90
6788;DHT22;3431;47.966;10.268;2022-09-02T00:28:43;12.50;99.90
6788;DHT22;3431;47.966;10.268;2022-09-02T00:29:06;12.50;99.90
6788;DHT22;3431;47.966;10.268;2022-09-02T00:29:28;12.50;99.90
6788;DHT22;3431;47.966;10.268;2022-09-02T00:29:50;12.50;99.90
6788;DHT22;3431;47.966;10.268;2022-09-02T00:30:12;12.50;99.90
6788;DHT22;3431;47.966;10.268;2022-09-02T00:30:35;12.50;99.90
6788;DHT22;3431;47.966;10.268;2022-09-02T00:30:57;12.50;99.90
6788;DHT22;3431;47.966;10.268;2022-09-02T00:31:19;12.50;99.90
6788;DHT22;3431;47.966;10.268;2022-09-02T00:31:41;12.50;99.90
6788;DHT22;3431;47.966;10.268;2022-09-02T00:32:05;12.50;99.90
6788;DHT22;3431;47.966;10.268;2022-09-02T00:32:26;12.50;99.90
6788;DHT22;3431;47.966;10.268;2022-09-02T00:32:48;12.50;99.90
6788;DHT22;3431;47.966;10.268;2022-09-02T00:33:11;12.50;99.90
6788;DHT22;3431;47.966;10.268;2022-09-02T00:33:34;12.50;99.90
6788;DHT22;3431;47.966;10.268;2022-09-02T00:33:55;12.50;99.90
6788;DHT22;3431;47.966;10.268;2022-09-02T00:34:17;12.50;99.90
6788;DHT22;3431;47.966;10.268;2022-09-02T00:34:39;12.50;99.90
6788;DHT22;3431;47.966;10.268;2022-09-02T00:35:02;12.50;99.90
6788;DHT22;3431;47.966;10.268;2022-09-02T00:35:24;12.50;99.90
6788;DHT22;3431;47.966;10.268;2022-09-02T00:35:46;12.50;99.90
6788;DHT22;3431;47.966;10.268;2022-09-02T00:36:08;12.50;99.90
6788;DHT22;3431;47.966;10.268;2022-09-02T00:36:30;12.50;99.90
6788;DHT22;3431;47.966;10.268;2022-09-02T00:36:53;12.50;99.90
6788;DHT22;3431;47.966;10.268;2022-09-02T00:37:15;12.50;99.90
6788;DHT22;3431;47.966;10.268;2022-09-02T00:37:37;12.50;99.90
6788;DHT22;3431;47.966;10.268;2022-09-02T00:37:59;12.50;99.90
6788;DHT22;3431;47.966;10.268;2022-09-02T00:38:21;12.50;99.90
6788;DHT22;3431;47.966;10.268;2022-09-02T00:38:45;12.50;99.90
6788;DHT22;3431;47.966;10.268;2022-09-02T00:39:07;12.50;99.90
6788;DHT22;3431;47.966;10.268;2022-09-02T00:39:29;12.50;99.90
6788;DHT22;3431;47.966;10.268;2022-09-02T00:39:52;12.50;99.90
6788;DHT22;3431;47.966;10.268;2022-09-02T00:40:15;12.50;99.90
6788;DHT22;3431;47.966;10.268;2022-09-02T00:40:37;12.50;99.90
6788;DHT22;3431;47.966;10.268;2022-09-02T00:41:01;12.50;99.90
6788;DHT22;3431;47.966;10.268;2022-09-02T00:41:25;12.50;99.90
6788;DHT22;3431;47.966;10.268;2022-09-02T00:41:49;12.50;99.90
6788;DHT22;3431;47.966;10.268;2022-09-02T00:42:10;12.50;99.90
6788;DHT22;3431;47.966;10.268;2022-09-02T00:42:33;12.50;99.90
6788;DHT22;3431;47.966;10.268;2022-09-02T00:42:54;12.50;99.90
6788;DHT22;3431;47.966;10.268;2022-09-02T00:43:24;12.50;99.90
6788;DHT22;3431;47.966;10.268;2022-09-02T00:43:48;12.50;99.90
6788;DHT22;3431;47.966;10.268;2022-09-02T00:44:13;12.50;99.90
6788;DHT22;3431;47.966;10.268;2022-09-02T00:44:36;12.50;99.90
6788;DHT22;3431;47.966;10.268;2022-09-02T00:44:57;12.50;99.90
6788;DHT22;3431;47.966;10.268;2022-09-02T00:45:21;12.50;99.90
6788;DHT22;3431;47.966;10.268;2022-09-02T00:45:42;12.50;99.90
6788;DHT22;3431;47.966;10.268;2022-09-02T00:46:04;12.50;99.90
6788;DHT22;3431;47.966;10.268;2022-09-02T00:46:28;12.50;99.90
6788;DHT22;3431;47.966;10.268;2022-09-02T00:46:51;12.50;99.90
6788;DHT22;3431;47.966;10.268;2022-09-02T00:47:13;12.50;99.90
6788;DHT22;3431;47.966;10.268;2022-09-02T00:47:36;12.50;99.90
6788;DHT22;3431;47.966;10.268;2022-09-02T00:47:57;12.50;99.90
6788;DHT22;3431;47.966;10.268;2022-09-02T00:48:20;12.50;99.90
6788;DHT22;3431;47.966;10.268;2022-09-02T00:48:47;12.50;99.90
6788;DHT22;3431;47.966;10.268;2022-09-02T00:49:12;12.40;99.90
6788;DHT22;3431;47.966;10.268;2022-09-02T00:49:38;12.40;99.90
6788;DHT22;3431;47.966;10.268;2022-09-02T00:50:04;12.40;99.90
6788;DHT22;3431;47.966;10.268;2022-09-02T00:50:30;12.40;99.90
6788;DHT22;3431;47.966;10.268;2022-09-02T00:50:53;12.40;99.90
6788;DHT22;3431;47.966;10.268;2022-09-02T00:51:15;12.40;99.90
6788;DHT22;3431;47.966;10.268;2022-09-02T00:51:41;12.40;99.90
6788;DHT22;3431;47.966;10.268;2022-09-02T00:52:07;12.40;99.90
6788;DHT22;3431;47.966;10.268;2022-09-02T00:52:32;12.40;99.90
6788;DHT22;3431;47.966;10.268;2022-09-02T00:52:59;12.40;99.90
6788;DHT22;3431;47.966;10.268;2022-09-02T00:53:23;12.40;99.90
6788;DHT22;3431;47.966;10.268;2022-09-02T00:53:47;12.40;99.90
6788;DHT22;3431;47.966;10.268;2022-09-02T00:54:13;12.40;99.90
6788;DHT22;3431;47.966;10.268;2022-09-02T00:54:39;12.40;99.90
6788;DHT22;3431;47.966;10.268;2022-09-02T00:55:05;12.40;99.90
6788;DHT22;3431;47.966;10.268;2022-09-02T00:55:30;12.40;99.90
6788;DHT22;3431;47.966;10.268;2022-09-02T00:55:54;12.40;99.90
6788;DHT22;3431;47.966;10.268;2022-09-02T00:56:28;12.40;99.90
6788;DHT22;3431;47.966;10.268;2022-09-02T00:56:51;12.40;99.90
6788;DHT22;3431;47.966;10.268;2022-09-02T00:57:17;12.40;99.90
6788;DHT22;3431;47.966;10.268;2022-09-02T00:57:50;12.40;99.90
6788;DHT22;3431;47.966;10.268;2022-09-02T00:58:15;12.40;99.90
6788;DHT22;3431;47.966;10.268;2022-09-02T00:58:41;12.30;99.90
6788;DHT22;3431;47.966;10.268;2022-09-02T00:59:03;12.30;99.90
6788;DHT22;3431;47.966;10.268;2022-09-02T00:59:29;12.30;99.90
6788;DHT22;3431;47.966;10.268;2022-09-02T00:59:57;12.30;99.90
6788;DHT22;3431;47.966;10.268;2022-09-02T01:00:24;12.30;99.90
6788;DHT22;3431;47.966;10.268;2022-09-02T01:00:48;12.30;99.90
6788;DHT22;3431;47.966;10.268;2022-09-02T01:01:12;12.30;99.90
6788;DHT22;3431;47.966;10.268;2022-09-02T01:01:34;12.30;99.90
6788;DHT22;3431;47.966;10.268;2022-09-02T01:01:57;12.30;99.90
6788;DHT22;3431;47.966;10.268;2022-09-02T01:02:18;12.30;99.90
6788;DHT22;3431;47.966;10.268;2022-09-02T01:02:47;12.30;99.90
6788;DHT22;3431;47.966;10.268;2022-09-02T01:03:11;12.30;99.90
6788;DHT22;3431;47.966;10.268;2022-09-02T01:03:34;12.30;99.90
6788;DHT22;3431;47.966;10.268;2022-09-02T01:03:56;12.30;99.90
6788;DHT22;3431;47.966;10.268;2022-09-02T01:04:17;12.30;99.90
6788;DHT22;3431;47.966;10.268;2022-09-02T01:04:39;12.30;99.90
6788;DHT22;3431;47.966;10.268;2022-09-02T01:05:05;12.30;99.90
6788;DHT22;3431;47.966;10.268;2022-09-02T01:05:30;12.30;99.90
6788;DHT22;3431;47.966;10.268;2022-09-02T01:05:55;12.30;99.90
6788;DHT22;3431;47.966;10.268;2022-09-02T01:06:24;12.30;99.90
6788;DHT22;3431;47.966;10.268;2022-09-02T01:06:48;12.30;99.90
6788;DHT22;3431;47.966;10.268;2022-09-02T01:07:12;12.30;99.90
6788;DHT22;3431;47.966;10.268;2022-09-02T01:07:35;12.30;99.90
6788;DHT22;3431;47.966;10.268;2022-09-02T01:07:58;12.30;99.90
6788;DHT22;3431;47.966;10.268;2022-09-02T01:08:22;12.30;99.90
6788;DHT22;3431;47.966;10.268;2022-09-02T01:08:50;12.30;99.90
6788;DHT22;3431;47.966;10.268;2022-09-02T01:09:15;12.30;99.90
6788;DHT22;3431;47.966;10.268;2022-09-02T01:09:37;12.30;99.90
6788;DHT22;3431;47.966;10.268;2022-09-02T01:10:01;12.20;99.90
6788;DHT22;3431;47.966;10.268;2022-09-02T01:10:26;12.20;99.90
6788;DHT22;3431;47.966;10.268;2022-09-02T01:10:48;12.20;99.90
6788;DHT22;3431;47.966;10.268;2022-09-02T01:11:09;12.20;99.90
6788;DHT22;3431;47.966;10.268;2022-09-02T01:11:36;12.20;99.90
6788;DHT22;3431;47.966;10.268;2022-09-02T01:11:59;12.20;99.90
6788;DHT22;3431;47.966;10.268;2022-09-02T01:12:24;12.20;99.90
6788;DHT22;3431;47.966;10.268;2022-09-02T01:12:47;12.20;99.90
6788;DHT22;3431;47.966;10.268;2022-09-02T01:13:13;12.20;99.90
6788;DHT22;3431;47.966;10.268;2022-09-02T01:13:41;12.20;99.90
6788;DHT22;3431;47.966;10.268;2022-09-02T01:14:03;12.20;99.90
6788;DHT22;3431;47.966;10.268;2022-09-02T01:14:27;12.20;99.90
6788;DHT22;3431;47.966;10.268;2022-09-02T01:14:49;12.20;99.90
6788;DHT22;3431;47.966;10.268;2022-09-02T01:15:13;12.20;99.90
6788;DHT22;3431;47.966;10.268;2022-09-02T01:15:40;12.20;99.90
6788;DHT22;3431;47.966;10.268;2022-09-02T01:16:09;12.20;99.90
6788;DHT22;3431;47.966;10.268;2022-09-02T01:16:36;12.20;99.90
6788;DHT22;3431;47.966;10.268;2022-09-02T01:17:01;12.20;99.90
6788;DHT22;3431;47.966;10.268;2022-09-02T01:17:23;12.20;99.90
6788;DHT22;3431;47.966;10.268;2022-09-02T01:17:48;12.20;99.90
6788;DHT22;3431;47.966;10.268;2022-09-02T01:18:16;12.20;99.90
6788;DHT22;3431;47.966;10.268;2022-09-02T01:18:39;12.20;99.90
6788;DHT22;3431;47.966;10.268;2022-09-02T01:19:10;12.20;99.90
6788;DHT22;3431;47.966;10.268;2022-09-02T01:19:38;12.20;99.90
6788;DHT22;3431;47.966;10.268;2022-09-02T01:20:04;12.20;99.90
6788;DHT22;3431;47.966;10.268;2022-09-02T01:20:27;12.20;99.90
6788;DHT22;3431;47.966;10.268;2022-09-02T01:20:49;12.20;99.90
6788;DHT22;3431;47.966;10.268;2022-09-02T01:21:10;12.20;99.90
6788;DHT22;3431;47.966;10.268;2022-09-02T01:21:32;12.20;99.90
6788;DHT22;3431;47.966;10.268;2022-09-02T01:21:57;12.20;99.90
6788;DHT22;3431;47.966;10.268;2022-09-02T01:22:22;12.20;99.90
6788;DHT22;3431;47.966;10.268;2022-09-02T01:22:44;12.20;99.90
6788;DHT22;3431;47.966;10.268;2022-09-02T01:23:06;12.10;99.90
6788;DHT22;3431;47.966;10.268;2022-09-02T01:23:29;12.20;99.90
6788;DHT22;3431;47.966;10.268;2022-09-02T01:23:52;12.20;99.90
6788;DHT22;3431;47.966;10.268;2022-09-02T01:24:16;12.20;99.90
6788;DHT22;3431;47.966;10.268;2022-09-02T01:24:38;12.10;99.90
6788;DHT22;3431;47.966;10.268;2022-09-02T01:25:05;12.20;99.90
6788;DHT22;3431;47.966;10.268;2022-09-02T01:25:30;12.20;99.90
6788;DHT22;3431;47.966;10.268;2022-09-02T01:25:53;12.10;99.90
6788;DHT22;3431;47.966;10.268;2022-09-02T01:26:15;12.20;99.90
6788;DHT22;3431;47.966;10.268;2022-09-02T01:26:36;12.10;99.90
6788;DHT22;3431;47.966;10.268;2022-09-02T01:26:58;12.10;99.90
6788;DHT22;3431;47.966;10.268;2022-09-02T01:27:22;12.10;99.90
6788;DHT22;3431;47.966;10.268;2022-09-02T01:27:44;12.10;99.90
6788;DHT22;3431;47.966;10.268;2022-09-02T01:28:10;12.10;99.90
6788;DHT22;3431;47.966;10.268;2022-09-02T01:28:34;12.10;99.90
6788;DHT22;3431;47.966;10.268;2022-09-02T01:28:58;12.10;99.90
6788;DHT22;3431;47.966;10.268;2022-09-02T01:29:20;12.10;99.90
6788;DHT22;3431;47.966;10.268;2022-09-02T01:29:42;12.10;99.90
6788;DHT22;3431;47.966;10.268;2022-09-02T01:30:05;12.10;99.90
6788;DHT22;3431;47.966;10.268;2022-09-02T01:30:30;12.10;99.90
6788;DHT22;3431;47.966;10.268;2022-09-02T01:30:53;12.10;99.90
6788;DHT22;3431;47.966;10.268;2022-09-02T01:31:15;12.10;99.90
6788;DHT22;3431;47.966;10.268;2022-09-02T01:31:38;12.10;99.90
6788;DHT22;3431;47.966;10.268;2022-09-02T01:32:01;12.10;99.90
6788;DHT22;3431;47.966;10.268;2022-09-02T01:32:23;12.10;99.90
6788;DHT22;3431;47.966;10.268;2022-09-02T01:32:45;12.10;99.90
6788;DHT22;3431;47.966;10.268;2022-09-02T01:33:09;12.10;99.90
6788;DHT22;3431;47.966;10.268;2022-09-02T01:33:31;12.10;99.90
6788;DHT22;3431;47.966;10.268;2022-09-02T01:33:53;12.10;99.90
6788;DHT22;3431;47.966;10.268;2022-09-02T01:34:15;12.10;99.90
6788;DHT22;3431;47.966;10.268;2022-09-02T01:34:37;12.10;99.90
6788;DHT22;3431;47.966;10.268;2022-09-02T01:34:59;12.10;99.90
6788;DHT22;3431;47.966;10.268;2022-09-02T01:35:22;12.10;99.90
6788;DHT22;3431;47.966;10.268;2022-09-02T01:35:44;12.10;99.90
6788;DHT22;3431;47.966;10.268;2022-09-02T01:36:06;12.10;99.90
6788;DHT22;3431;47.966;10.268;2022-09-02T01:36:28;12.10;99.90
6788;DHT22;3431;47.966;10.268;2022-09-02T01:36:51;12.10;99.90
6788;DHT22;3431;47.966;10.268;2022-09-02T01:37:14;12.10;99.90
6788;DHT22;3431;47.966;10.268;2022-09-02T01:37:36;12.10;99.90
6788;DHT22;3431;47.966;10.268;2022-09-02T01:37:59;12.10;99.90
6788;DHT22;3431;47.966;10.268;2022-09-02T01:38:23;12.10;99.90
6788;DHT22;3431;47.966;10.268;2022-09-02T01:38:46;12.10;99.90
6788;DHT22;3431;47.966;10.268;2022-09-02T01:39:08;12.10;99.90
6788;DHT22;3431;47.966;10.268;2022-09-02T01:39:30;12.10;99.90
6788;DHT22;3431;47.966;10.268;2022-09-02T01:39:51;12.10;99.90
6788;DHT22;3431;47.966;10.268;2022-09-02T01:40:16;12.10;99.90
6788;DHT22;3431;47.966;10.268;2022-09-02T01:40:38;12.10;99.90
6788;DHT22;3431;47.966;10.268;2022-09-02T01:41:00;12.20;99.90
6788;DHT22;3431;47.966;10.268;2022-09-02T01:41:22;12.20;99.90
6788;DHT22;3431;47.966;10.268;2022-09-02T01:41:45;12.20;99.90
6788;DHT22;3431;47.966;10.268;2022-09-02T01:42:07;12.20;99.90
6788;DHT22;3431;47.966;10.268;2022-09-02T01:42:28;12.20;99.90
6788;DHT22;3431;47.966;10.268;2022-09-02T01:42:55;12.20;99.90
6788;DHT22;3431;47.966;10.268;2022-09-02T01:43:21;12.20;99.90
6788;DHT22;3431;47.966;10.268;2022-09-02T01:43:44;12.20;99.90
6788;DHT22;3431;47.966;10.268;2022-09-02T01:44:06;12.20;99.90
6788;DHT22;3431;47.966;10.268;2022-09-02T01:44:28;12.20;99.90
6788;DHT22;3431;47.966;10.268;2022-09-02T01:44:51;12.20;99.90
6788;DHT22;3431;47.966;10.268;2022-09-02T01:45:13;12.20;99.90
6788;DHT22;3431;47.966;10.268;2022-09-02T01:45:37;12.20;99.90
6788;DHT22;3431;47.966;10.268;2022-09-02T01:45:59;12.20;99.90
6788;DHT22;3431;47.966;10.268;2022-09-02T01:46:25;12.20;99.90
6788;DHT22;3431;47.966;10.268;2022-09-02T01:46:46;12.20;99.90
6788;DHT22;3431;47.966;10.268;2022-09-02T01:47:08;12.10;99.90
6788;DHT22;3431;47.966;10.268;2022-09-02T01:47:30;12.10;99.90
6788;DHT22;3431;47.966;10.268;2022-09-02T01:47:53;12.10;99.90
6788;DHT22;3431;47.966;10.268;2022-09-02T01:48:15;12.10;99.90
6788;DHT22;3431;47.966;10.268;2022-09-02T01:48:37;12.10;99.90
6788;DHT22;3431;47.966;10.268;2022-09-02T01:48:58;12.10;99.90
6788;DHT22;3431;47.966;10.268;2022-09-02T01:49:22;12.10;99.90
6788;DHT22;3431;47.966;10.268;2022-09-02T01:49:44;12.10;99.90
6788;DHT22;3431;47.966;10.268;2022-09-02T01:50:08;12.10;99.90
6788;DHT22;3431;47.966;10.268;2022-09-02T01:50:31;12.10;99.90
6788;DHT22;3431;47.966;10.268;2022-09-02T01:50:56;12.10;99.90
6788;DHT22;3431;47.966;10.268;2022-09-02T01:51:19;12.10;99.90
6788;DHT22;3431;47.966;10.268;2022-09-02T01:51:41;12.00;99.90
6788;DHT22;3431;47.966;10.268;2022-09-02T01:52:04;12.00;99.90
6788;DHT22;3431;47.966;10.268;2022-09-02T01:52:28;12.00;99.90
6788;DHT22;3431;47.966;10.268;2022-09-02T01:52:50;12.00;99.90
6788;DHT22;3431;47.966;10.268;2022-09-02T01:53:12;12.00;99.90
6788;DHT22;3431;47.966;10.268;2022-09-02T01:53:34;12.00;99.90
6788;DHT22;3431;47.966;10.268;2022-09-02T01:53:56;12.00;99.90
6788;DHT22;3431;47.966;10.268;2022-09-02T01:54:18;11.90;99.90
6788;DHT22;3431;47.966;10.268;2022-09-02T01:54:41;11.90;99.90
6788;DHT22;3431;47.966;10.268;2022-09-02T01:55:05;11.90;99.90
6788;DHT22;3431;47.966;10.268;2022-09-02T01:55:27;11.90;99.90
6788;DHT22;3431;47.966;10.268;2022-09-02T01:55:49;11.80;99.90
6788;DHT22;3431;47.966;10.268;2022-09-02T01:56:11;11.80;99.90
6788;DHT22;3431;47.966;10.268;2022-09-02T01:56:33;11.80;99.90
6788;DHT22;3431;47.966;10.268;2022-09-02T01:56:56;11.80;99.90
6788;DHT22;3431;47.966;10.268;2022-09-02T01:57:18;11.80;99.90
6788;DHT22;3431;47.966;10.268;2022-09-02T01:57:40;11.70;99.90
6788;DHT22;3431;47.966;10.268;2022-09-02T01:58:06;11.70;99.90
6788;DHT22;3431;47.966;10.268;2022-09-02T01:58:28;11.70;99.90
6788;DHT22;3431;47.966;10.268;2022-09-02T01:58:49;11.70;99.90
6788;DHT22;3431;47.966;10.268;2022-09-02T01:59:11;11.60;99.90
6788;DHT22;3431;47.966;10.268;2022-09-02T01:59:38;11.60;99.90
6788;DHT22;3431;47.966;10.268;2022-09-02T01:59:59;11.60;99.90
6788;DHT22;3431;47.966;10.268;2022-09-02T02:00:23;11.60;99.90
6788;DHT22;3431;47.966;10.268;2022-09-02T02:00:45;11.60;99.90
6788;DHT22;3431;47.966;10.268;2022-09-02T02:01:07;11.60;99.90
6788;DHT22;3431;47.966;10.268;2022-09-02T02:01:30;11.50;99.90
6788;DHT22;3431;47.966;10.268;2022-09-02T02:01:52;11.50;99.90
6788;DHT22;3431;47.966;10.268;2022-09-02T02:02:15;11.50;99.90
6788;DHT22;3431;47.966;10.268;2022-09-02T02:02:36;11.50;99.90
6788;DHT22;3431;47.966;10.268;2022-09-02T02:02:59;11.50;99.90
6788;DHT22;3431;47.966;10.268;2022-09-02T02:03:21;11.50;99.90
6788;DHT22;3431;47.966;10.268;2022-09-02T02:03:42;11.50;99.90
6788;DHT22;3431;47.966;10.268;2022-09-02T02:04:04;11.50;99.90
6788;DHT22;3431;47.966;10.268;2022-09-02T02:04:27;11.40;99.90
6788;DHT22;3431;47.966;10.268;2022-09-02T02:04:50;11.40;99.90
6788;DHT22;3431;47.966;10.268;2022-09-02T02:05:12;11.40;99.90
6788;DHT22;3431;47.966;10.268;2022-09-02T02:05:35;11.40;99.90
6788;DHT22;3431;47.966;10.268;2022-09-02T02:05:58;11.40;99.90
6788;DHT22;3431;47.966;10.268;2022-09-02T02:06:19;11.40;99.90
6788;DHT22;3431;47.966;10.268;2022-09-02T02:06:44;11.40;99.90
6788;DHT22;3431;47.966;10.268;2022-09-02T02:07:06;11.30;99.90
6788;DHT22;3431;47.966;10.268;2022-09-02T02:07:30;11.40;99.90
6788;DHT22;3431;47.966;10.268;2022-09-02T02:07:53;11.30;99.90
6788;DHT22;3431;47.966;10.268;2022-09-02T02:08:14;11.30;99.90
6788;DHT22;3431;47.966;10.268;2022-09-02T02:08:37;11.30;99.90
6788;DHT22;3431;47.966;10.268;2022-09-02T02:08:58;11.30;99.90
6788;DHT22;3431;47.966;10.268;2022-09-02T02:09:22;11.30;99.90
6788;DHT22;3431;47.966;10.268;2022-09-02T02:09:46;11.30;99.90
6788;DHT22;3431;47.966;10.268;2022-09-02T02:10:13;11.30;99.90
6788;DHT22;3431;47.966;10.268;2022-09-02T02:10:35;11.30;99.90
6788;DHT22;3431;47.966;10.268;2022-09-02T02:10:57;11.30;99.90
6788;DHT22;3431;47.966;10.268;2022-09-02T02:11:23;11.30;99.90
6788;DHT22;3431;47.966;10.268;2022-09-02T02:11:48;11.20;99.90
6788;DHT22;3431;47.966;10.268;2022-09-02T02:12:10;11.30;99.90
6788;DHT22;3431;47.966;10.268;2022-09-02T02:12:32;11.20;99.90
6788;DHT22;3431;47.966;10.268;2022-09-02T02:12:53;11.30;99.90
6788;DHT22;3431;47.966;10.268;2022-09-02T02:13:18;11.20;99.90
6788;DHT22;3431;47.966;10.268;2022-09-02T02:13:39;11.20;99.90
6788;DHT22;3431;47.966;10.268;2022-09-02T02:14:01;11.20;99.90
6788;DHT22;3431;47.966;10.268;2022-09-02T02:14:24;11.20;99.90
6788;DHT22;3431;47.966;10.268;2022-09-02T02:14:45;11.20;99.90
6788;DHT22;3431;47.966;10.268;2022-09-02T02:15:10;11.20;99.90
6788;DHT22;3431;47.966;10.268;2022-09-02T02:15:35;11.20;99.90
6788;DHT22;3431;47.966;10.268;2022-09-02T02:15:58;11.20;99.90
6788;DHT22;3431;47.966;10.268;2022-09-02T02:16:20;11.10;99.90
6788;DHT22;3431;47.966;10.268;2022-09-02T02:16:42;11.10;99.90
6788;DHT22;3431;47.966;10.268;2022-09-02T02:17:04;11.10;99.90
6788;DHT22;3431;47.966;10.268;2022-09-02T02:17:25;11.10;99.90
6788;DHT22;3431;47.966;10.268;2022-09-02T02:17:48;11.10;99.90
6788;DHT22;3431;47.966;10.268;2022-09-02T02:18:10;11.10;99.90
6788;DHT22;3431;47.966;10.268;2022-09-02T02:18:32;11.00;99.90
6788;DHT22;3431;47.966;10.268;2022-09-02T02:18:54;11.00;99.90
6788;DHT22;3431;47.966;10.268;2022-09-02T02:19:16;11.10;99.90
6788;DHT22;3431;47.966;10.268;2022-09-02T02:19:38;11.00;99.90
6788;DHT22;3431;47.966;10.268;2022-09-02T02:20:00;11.00;99.90
6788;DHT22;3431;47.966;10.268;2022-09-02T02:20:22;11.00;99.90
6788;DHT22;3431;47.966;10.268;2022-09-02T02:20:44;11.00;99.90
6788;DHT22;3431;47.966;10.268;2022-09-02T02:21:07;11.00;99.90
6788;DHT22;3431;47.966;10.268;2022-09-02T02:21:28;11.00;99.90
6788;DHT22;3431;47.966;10.268;2022-09-02T02:21:50;11.00;99.90
6788;DHT22;3431;47.966;10.268;2022-09-02T02:22:12;11.00;99.90
6788;DHT22;3431;47.966;10.268;2022-09-02T02:22:36;11.00;99.90
6788;DHT22;3431;47.966;10.268;2022-09-02T02:22:58;10.90;99.90
6788;DHT22;3431;47.966;10.268;2022-09-02T02:23:20;10.90;99.90
6788;DHT22;3431;47.966;10.268;2022-09-02T02:23:42;11.00;99.90
6788;DHT22;3431;47.966;10.268;2022-09-02T02:24:05;10.90;99.90
6788;DHT22;3431;47.966;10.268;2022-09-02T02:24:28;11.00;99.90
6788;DHT22;3431;47.966;10.268;2022-09-02T02:24:50;10.90;99.90
6788;DHT22;3431;47.966;10.268;2022-09-02T02:25:13;11.00;99.90
6788;DHT22;3431;47.966;10.268;2022-09-02T02:25:35;11.00;99.90
6788;DHT22;3431;47.966;10.268;2022-09-02T02:25:58;10.90;99.90
6788;DHT22;3431;47.966;10.268;2022-09-02T02:26:19;11.00;99.90
6788;DHT22;3431;47.966;10.268;2022-09-02T02:26:41;10.90;99.90
6788;DHT22;3431;47.966;10.268;2022-09-02T02:27:04;10.90;99.90
6788;DHT22;3431;47.966;10.268;2022-09-02T02:27:27;10.90;99.90
6788;DHT22;3431;47.966;10.268;2022-09-02T02:27:48;10.90;99.90
6788;DHT22;3431;47.966;10.268;2022-09-02T02:28:10;10.90;99.90
6788;DHT22;3431;47.966;10.268;2022-09-02T02:28:32;10.90;99.90